createdAt,value
2018-02-09T00:00:29.600Z,-0.50
2018-02-09T00:02:57.091Z,-0.50
2018-02-09T00:05:25.336Z,-0.50
2018-02-09T00:07:52.843Z,-0.50
2018-02-09T00:10:20.303Z,-0.60
2018-02-09T00:12:47.912Z,-0.60
2018-02-09T00:15:15.426Z,-0.60
2018-02-09T00:17:43.685Z,-0.50
2018-02-09T00:20:11.155Z,-0.60
2018-02-09T00:22:50.410Z,-0.60
2018-02-09T00:25:18.653Z,-0.50
2018-02-09T00:27:46.159Z,-0.60
2018-02-09T00:30:13.609Z,-0.60
2018-02-09T00:32:41.845Z,-0.60
2018-02-09T00:35:09.315Z,-0.60
2018-02-09T00:37:36.779Z,-0.60
2018-02-09T00:40:04.285Z,-0.60
2018-02-09T00:42:32.498Z,-0.60
2018-02-09T00:44:59.975Z,-0.60
2018-02-09T00:47:27.427Z,-0.60
2018-02-09T00:49:54.911Z,-0.60
2018-02-09T00:52:23.150Z,-0.60
2018-02-09T00:54:50.635Z,-0.60
2018-02-09T00:57:18.895Z,-0.60
2018-02-09T00:59:46.362Z,-0.60
2018-02-09T01:02:13.819Z,-0.60
2018-02-09T01:04:42.074Z,-0.60
2018-02-09T01:07:09.547Z,-0.60
2018-02-09T01:09:37.065Z,-0.60
2018-02-09T01:12:04.550Z,-0.60
2018-02-09T01:14:32.030Z,-0.60
2018-02-09T01:17:00.323Z,-0.60
2018-02-09T01:19:28.581Z,-0.60
2018-02-09T01:21:56.040Z,-0.60
2018-02-09T01:24:23.586Z,-0.60
2018-02-09T01:26:51.050Z,-0.60
2018-02-09T01:29:18.571Z,-0.70
2018-02-09T01:31:46.048Z,-0.70
2018-02-09T01:34:13.531Z,-0.70
2018-02-09T01:36:40.987Z,-0.70
2018-02-09T01:39:08.539Z,-0.70
2018-02-09T01:41:36.018Z,-0.70
2018-02-09T01:44:03.495Z,-0.70
2018-02-09T01:46:31.743Z,-0.70
2018-02-09T01:48:59.208Z,-0.70
2018-02-09T01:51:26.711Z,-0.70
2018-02-09T01:53:54.180Z,-0.70
2018-02-09T01:56:21.652Z,-0.70
2018-02-09T01:58:49.138Z,-0.80
2018-02-09T02:01:17.391Z,-0.70
2018-02-09T02:03:44.872Z,-0.70
2018-02-09T02:06:12.382Z,-0.70
2018-02-09T02:08:39.861Z,-0.80
2018-02-09T02:11:07.330Z,-0.80
2018-02-09T02:13:34.810Z,-0.90
2018-02-09T02:16:02.248Z,-0.90
2018-02-09T02:18:29.718Z,-0.90
2018-02-09T02:20:57.178Z,-1.00
2018-02-09T02:23:24.691Z,-1.00
2018-02-09T02:25:52.220Z,-1.00
2018-02-09T02:28:20.524Z,-1.00
2018-02-09T02:30:47.991Z,-1.00
2018-02-09T02:33:15.458Z,-1.00
2018-02-09T02:35:42.923Z,-1.00
2018-02-09T02:38:10.387Z,-1.00
2018-02-09T02:40:37.871Z,-1.00
2018-02-09T02:43:05.308Z,-1.00
2018-02-09T02:45:32.785Z,-1.00
2018-02-09T02:48:00.273Z,-1.00
2018-02-09T02:50:27.750Z,-0.90
2018-02-09T02:52:55.235Z,-0.90
2018-02-09T02:55:22.702Z,-0.90
2018-02-09T02:57:50.184Z,-0.90
2018-02-09T03:00:18.471Z,-0.90
2018-02-09T03:02:46.728Z,-0.90
2018-02-09T03:05:14.223Z,-0.90
2018-02-09T03:07:41.704Z,-0.90
2018-02-09T03:10:09.182Z,-0.90
2018-02-09T03:12:36.636Z,-0.90
2018-02-09T03:15:04.097Z,-1.00
2018-02-09T03:17:31.552Z,-1.00
2018-02-09T03:19:59.035Z,-1.10
2018-02-09T03:22:26.515Z,-1.00
2018-02-09T03:24:54.763Z,-1.10
2018-02-09T03:27:22.226Z,-1.10
2018-02-09T03:29:49.732Z,-1.00
2018-02-09T03:32:17.207Z,-1.00
2018-02-09T03:34:44.678Z,-1.00
2018-02-09T03:37:12.142Z,-1.00
2018-02-09T03:39:39.598Z,-1.00
2018-02-09T03:42:07.069Z,-1.00
2018-02-09T03:44:34.624Z,-1.00
2018-02-09T03:47:02.135Z,-1.10
2018-02-09T03:49:29.622Z,-1.10
2018-02-09T03:51:57.832Z,-1.00
2018-02-09T03:54:25.311Z,-1.00
2018-02-09T03:56:53.576Z,-1.10
2018-02-09T03:59:21.842Z,-1.10
2018-02-09T04:01:49.295Z,-1.10
2018-02-09T04:04:16.773Z,-1.10
2018-02-09T04:06:44.238Z,-1.10
2018-02-09T04:09:12.460Z,-1.10
2018-02-09T04:11:39.956Z,-1.20
2018-02-09T04:14:07.403Z,-1.10
2018-02-09T04:16:34.886Z,-1.10
2018-02-09T04:19:03.148Z,-1.10
2018-02-09T04:21:30.593Z,-1.10
2018-02-09T04:23:58.270Z,-1.10
2018-02-09T04:26:25.725Z,-1.10
2018-02-09T04:28:53.182Z,-1.10
2018-02-09T04:31:20.693Z,-1.20
2018-02-09T04:33:48.127Z,-1.20
2018-02-09T04:36:16.356Z,-1.10
2018-02-09T04:38:43.842Z,-1.20
2018-02-09T04:41:11.304Z,-1.10
2018-02-09T04:43:38.759Z,-1.20
2018-02-09T04:46:06.232Z,-1.20
2018-02-09T04:48:34.468Z,-1.20
2018-02-09T04:51:01.934Z,-1.20
2018-02-09T04:53:30.342Z,-1.20
2018-02-09T04:55:58.618Z,-1.20
2018-02-09T04:58:26.865Z,-1.10
2018-02-09T05:00:54.334Z,-1.20
2018-02-09T05:03:21.795Z,-1.10
2018-02-09T05:05:49.276Z,-1.00
2018-02-09T05:08:17.502Z,-0.90
2018-02-09T05:10:44.987Z,-1.00
2018-02-09T05:13:12.464Z,-0.90
2018-02-09T05:15:40.704Z,-1.00
2018-02-09T05:18:08.233Z,-1.10
2018-02-09T05:20:35.719Z,-1.10
2018-02-09T05:23:03.194Z,-1.10
2018-02-09T05:25:30.752Z,-1.10
2018-02-09T05:27:58.194Z,-1.10
2018-02-09T05:30:25.679Z,-1.20
2018-02-09T05:32:53.123Z,-1.20
2018-02-09T05:35:20.578Z,-1.20
2018-02-09T05:37:48.055Z,-1.30
2018-02-09T05:40:15.508Z,-1.30
2018-02-09T05:42:43.025Z,-1.30
2018-02-09T05:45:10.479Z,-1.30
2018-02-09T05:47:37.966Z,-1.20
2018-02-09T05:50:05.427Z,-1.20
2018-02-09T05:52:32.908Z,-1.20
2018-02-09T05:55:00.384Z,-1.20
2018-02-09T05:57:27.871Z,-1.10
2018-02-09T05:59:55.335Z,-1.10
2018-02-09T06:02:22.810Z,-1.10
2018-02-09T06:04:50.255Z,-1.10
2018-02-09T06:07:17.738Z,-1.20
2018-02-09T06:09:45.228Z,-1.20
2018-02-09T06:12:13.486Z,-1.20
2018-02-09T06:14:40.971Z,-1.20
2018-02-09T06:17:09.220Z,-1.20
2018-02-09T06:19:36.683Z,-1.20
2018-02-09T06:22:04.144Z,-1.20
2018-02-09T06:24:31.615Z,-1.20
2018-02-09T06:26:59.895Z,-1.20
2018-02-09T06:29:28.147Z,-1.20
2018-02-09T06:31:55.616Z,-1.20
2018-02-09T06:34:23.079Z,-1.20
2018-02-09T06:36:51.352Z,-1.20
2018-02-09T06:39:18.803Z,-1.20
2018-02-09T06:41:46.288Z,-1.10
2018-02-09T06:44:13.845Z,-1.10
2018-02-09T06:46:42.095Z,-1.00
2018-02-09T06:49:09.561Z,-1.00
2018-02-09T06:51:37.027Z,-1.00
2018-02-09T06:54:05.241Z,-0.90
2018-02-09T06:56:32.699Z,-0.90
2018-02-09T06:59:00.168Z,-0.90
2018-02-09T07:01:27.667Z,-0.90
2018-02-09T07:03:55.125Z,-1.00
2018-02-09T07:06:22.576Z,-1.00
2018-02-09T07:08:50.191Z,-1.00
2018-02-09T07:11:17.715Z,-1.00
2018-02-09T07:13:46.161Z,-1.00
2018-02-09T07:16:13.643Z,-1.00
2018-02-09T07:18:41.090Z,-1.00
2018-02-09T07:21:08.555Z,-1.00
2018-02-09T07:23:36.011Z,-0.90
2018-02-09T07:26:03.473Z,-0.90
2018-02-09T07:28:30.926Z,-0.90
2018-02-09T07:30:58.386Z,-0.90
2018-02-09T07:33:25.855Z,-0.90
2018-02-09T07:35:53.302Z,-0.90
2018-02-09T07:38:20.871Z,-0.80
2018-02-09T07:40:48.319Z,-0.70
2018-02-09T07:43:15.795Z,-0.50
2018-02-09T07:45:44.026Z,-0.50
2018-02-09T07:48:11.475Z,-0.50
2018-02-09T07:50:38.948Z,-0.50
2018-02-09T07:53:06.434Z,-0.50
2018-02-09T07:55:33.901Z,-0.50
2018-02-09T07:58:01.367Z,-0.60
2018-02-09T08:00:29.611Z,-0.60
2018-02-09T08:02:57.067Z,-0.60
2018-02-09T08:05:24.565Z,-0.70
2018-02-09T08:07:52.803Z,-0.70
2018-02-09T08:10:20.277Z,-0.70
2018-02-09T08:12:47.735Z,-0.70
2018-02-09T08:15:15.198Z,-0.70
2018-02-09T08:17:42.653Z,-0.60
2018-02-09T08:20:10.124Z,-0.50
2018-02-09T08:22:38.359Z,-0.40
2018-02-09T08:25:05.838Z,-0.50
2018-02-09T08:27:33.311Z,-0.40
2018-02-09T08:30:01.568Z,-0.40
2018-02-09T08:32:29.023Z,-0.40
2018-02-09T08:34:56.508Z,-0.30
2018-02-09T08:37:24.727Z,-0.30
2018-02-09T08:39:52.185Z,-0.30
2018-02-09T08:42:19.671Z,-0.20
2018-02-09T08:44:47.156Z,-0.30
2018-02-09T08:47:15.376Z,0.10
2018-02-09T08:49:42.864Z,0.10
2018-02-09T08:52:10.344Z,0.60
2018-02-09T08:54:37.827Z,0.90
2018-02-09T08:57:05.315Z,0.90
2018-02-09T08:59:32.770Z,1.00
2018-02-09T09:02:00.240Z,1.40
2018-02-09T09:04:27.690Z,1.60
2018-02-09T09:06:55.187Z,2.20
2018-02-09T09:09:22.656Z,2.90
2018-02-09T09:11:50.104Z,3.50
2018-02-09T09:14:17.595Z,3.80
2018-02-09T09:16:45.066Z,3.90
2018-02-09T09:19:12.633Z,4.20
2018-02-09T09:21:40.107Z,4.50
2018-02-09T09:24:07.578Z,4.50
2018-02-09T09:26:35.044Z,4.80
2018-02-09T09:29:02.521Z,5.40
2018-02-09T09:31:29.980Z,5.70
2018-02-09T09:33:57.653Z,5.50
2018-02-09T09:36:25.886Z,5.90
2018-02-09T09:38:53.355Z,5.90
2018-02-09T09:41:20.830Z,5.90
2018-02-09T09:43:48.291Z,6.00
2018-02-09T09:46:15.742Z,5.90
2018-02-09T09:48:43.223Z,5.90
2018-02-09T09:51:11.443Z,6.00
2018-02-09T09:53:38.926Z,6.00
2018-02-09T09:56:06.372Z,6.00
2018-02-09T09:58:33.859Z,5.80
2018-02-09T10:01:01.324Z,5.80
2018-02-09T10:03:29.538Z,4.90
2018-02-09T10:05:57.012Z,4.90
2018-02-09T10:08:24.463Z,4.70
2018-02-09T10:10:51.952Z,4.80
2018-02-09T10:13:19.579Z,4.60
2018-02-09T10:15:47.119Z,4.10
2018-02-09T10:18:15.338Z,3.70
2018-02-09T10:20:42.822Z,3.70
2018-02-09T10:23:10.484Z,3.20
2018-02-09T10:25:37.974Z,3.10
2018-02-09T10:28:05.398Z,3.00
2018-02-09T10:30:32.855Z,2.60
2018-02-09T10:33:00.332Z,2.50
2018-02-09T10:35:28.591Z,2.90
2018-02-09T10:37:56.063Z,2.90
2018-02-09T10:40:24.279Z,3.30
2018-02-09T10:42:51.758Z,3.30
2018-02-09T10:45:19.230Z,3.10
2018-02-09T10:47:46.734Z,3.20
2018-02-09T10:50:15.247Z,3.10
2018-02-09T10:52:42.745Z,3.10
2018-02-09T10:55:10.246Z,3.30
2018-02-09T10:57:37.724Z,3.50
2018-02-09T11:00:05.211Z,3.20
2018-02-09T11:02:32.683Z,3.10
2018-02-09T11:05:00.135Z,3.00
2018-02-09T11:07:27.599Z,2.90
2018-02-09T11:09:55.314Z,2.60
2018-02-09T11:12:22.769Z,2.40
2018-02-09T11:14:50.479Z,2.40
2018-02-09T11:17:18.205Z,2.40
2018-02-09T11:19:45.615Z,2.40
2018-02-09T11:22:13.855Z,2.30
2018-02-09T11:24:41.323Z,2.30
2018-02-09T11:27:08.872Z,2.30
2018-02-09T11:29:36.278Z,2.30
2018-02-09T11:32:04.546Z,2.40
2018-02-09T11:34:32.101Z,2.40
2018-02-09T11:36:59.546Z,2.40
2018-02-09T11:39:27.070Z,2.40
2018-02-09T11:41:54.545Z,2.60
2018-02-09T11:44:22.030Z,2.60
2018-02-09T11:46:49.514Z,2.60
2018-02-09T11:49:17.357Z,2.60
2018-02-09T11:51:44.909Z,2.40
2018-02-09T11:54:13.480Z,2.30
2018-02-09T11:56:40.953Z,2.30
2018-02-09T11:59:08.421Z,2.30
2018-02-09T12:01:36.698Z,2.40
2018-02-09T12:04:04.719Z,2.40
2018-02-09T12:06:32.175Z,2.40
2018-02-09T12:08:59.975Z,2.30
2018-02-09T12:11:27.548Z,2.30
2018-02-09T12:13:55.927Z,1.90
2018-02-09T12:16:23.712Z,1.90
2018-02-09T12:18:51.919Z,2.00
2018-02-09T12:21:19.411Z,1.90
2018-02-09T12:23:47.374Z,2.20
2018-02-09T12:26:15.263Z,2.40
2018-02-09T12:28:42.774Z,2.40
2018-02-09T12:31:10.354Z,2.40
2018-02-09T12:33:37.896Z,2.30
2018-02-09T12:36:05.495Z,2.30
2018-02-09T12:38:32.965Z,2.30
2018-02-09T12:41:00.423Z,2.40
2018-02-09T12:43:28.683Z,2.40
2018-02-09T12:45:56.151Z,2.40
2018-02-09T12:48:23.610Z,2.50
2018-02-09T12:50:51.246Z,2.40
2018-02-09T12:53:18.715Z,2.30
2018-02-09T12:55:46.175Z,2.30
2018-02-09T12:58:13.647Z,2.30
2018-02-09T13:00:41.138Z,2.40
2018-02-09T13:03:09.343Z,2.50
2018-02-09T13:05:36.819Z,2.50
2018-02-09T13:08:04.314Z,2.60
2018-02-09T13:10:32.591Z,2.60
2018-02-09T13:13:07.396Z,2.50
2018-02-09T13:15:34.863Z,2.50
2018-02-09T13:18:02.414Z,2.50
2018-02-09T13:20:30.091Z,2.50
2018-02-09T13:23:09.620Z,2.40
2018-02-09T13:25:37.128Z,2.20
2018-02-09T13:28:04.630Z,2.20
2018-02-09T13:30:32.109Z,2.10
2018-02-09T13:33:11.160Z,2.20
2018-02-09T13:35:39.401Z,2.40
2018-02-09T13:38:06.861Z,2.30
2018-02-09T13:40:34.310Z,2.40
2018-02-09T13:43:01.799Z,2.40
2018-02-09T13:45:30.091Z,2.20
2018-02-09T13:47:58.388Z,2.30
2018-02-09T13:50:25.879Z,2.30
2018-02-09T13:52:53.349Z,2.30
2018-02-09T13:55:20.885Z,2.30
2018-02-09T13:57:48.333Z,2.30
2018-02-09T14:00:15.817Z,2.40
2018-02-09T14:02:43.312Z,2.40
2018-02-09T14:05:11.585Z,2.40
2018-02-09T14:07:39.808Z,2.40
2018-02-09T14:10:07.332Z,2.40
2018-02-09T14:12:35.681Z,2.50
2018-02-09T14:15:03.207Z,2.50
2018-02-09T14:17:30.659Z,2.50
2018-02-09T14:19:58.111Z,2.50
2018-02-09T14:22:25.600Z,2.50
2018-02-09T14:24:53.053Z,2.50
2018-02-09T14:27:20.696Z,2.60
2018-02-09T14:29:48.149Z,2.60
2018-02-09T14:32:15.679Z,2.60
2018-02-09T14:34:43.939Z,2.70
2018-02-09T14:37:11.497Z,2.70
2018-02-09T14:39:38.952Z,2.70
2018-02-09T14:42:06.411Z,2.50
2018-02-09T14:44:33.871Z,2.60
2018-02-09T14:47:01.364Z,2.50
2018-02-09T14:49:28.847Z,2.50
2018-02-09T14:51:56.331Z,2.40
2018-02-09T14:54:23.887Z,2.40
2018-02-09T14:56:51.399Z,2.50
2018-02-09T14:59:19.741Z,2.50
2018-02-09T15:01:47.711Z,2.50
2018-02-09T15:04:15.154Z,2.50
2018-02-09T15:06:42.736Z,2.40
2018-02-09T15:09:10.191Z,2.30
2018-02-09T15:11:37.658Z,2.30
2018-02-09T15:14:05.199Z,2.20
2018-02-09T15:16:32.701Z,2.20
2018-02-09T15:19:00.939Z,2.30
2018-02-09T15:21:28.424Z,2.30
2018-02-09T15:23:56.771Z,2.30
2018-02-09T15:26:24.286Z,2.30
2018-02-09T15:28:51.734Z,2.20
2018-02-09T15:31:19.244Z,2.00
2018-02-09T15:33:46.704Z,2.10
2018-02-09T15:36:14.185Z,2.20
2018-02-09T15:38:41.647Z,2.20
2018-02-09T15:41:09.892Z,2.10
2018-02-09T15:43:37.428Z,2.10
2018-02-09T15:46:04.859Z,2.10
2018-02-09T15:48:32.351Z,2.10
2018-02-09T15:50:59.825Z,2.00
2018-02-09T15:53:27.316Z,2.00
2018-02-09T15:55:54.766Z,2.00
2018-02-09T15:58:22.245Z,2.00
2018-02-09T16:00:50.508Z,2.00
2018-02-09T16:03:18.779Z,1.90
2018-02-09T16:05:46.236Z,1.90
2018-02-09T16:08:13.740Z,1.90
2018-02-09T16:10:41.219Z,1.90
2018-02-09T16:13:08.708Z,1.80
2018-02-09T16:15:36.222Z,1.80
2018-02-09T16:18:03.747Z,1.80
2018-02-09T16:20:31.297Z,1.70
2018-02-09T16:22:59.559Z,1.70
2018-02-09T16:25:27.040Z,1.70
2018-02-09T16:27:55.313Z,1.70
2018-02-09T16:30:23.565Z,1.60
2018-02-09T16:32:51.040Z,1.60
2018-02-09T16:35:19.322Z,1.60
2018-02-09T16:37:47.550Z,1.50
2018-02-09T16:40:15.058Z,1.50
2018-02-09T16:42:42.571Z,1.50
2018-02-09T16:45:10.032Z,1.50
2018-02-09T16:47:37.510Z,1.50
2018-02-09T16:50:05.356Z,1.50
2018-02-09T16:52:32.835Z,1.50
2018-02-09T16:55:00.469Z,1.50
2018-02-09T16:57:29.402Z,1.50
2018-02-09T16:59:56.887Z,1.50
2018-02-09T17:02:24.379Z,1.50
2018-02-09T17:04:51.876Z,1.40
2018-02-09T17:07:19.465Z,1.40
2018-02-09T17:09:47.853Z,1.30
2018-02-09T17:12:16.202Z,1.30
2018-02-09T17:14:43.678Z,1.30
2018-02-09T17:17:11.934Z,1.30
2018-02-09T17:19:39.403Z,1.30
2018-02-09T17:22:07.498Z,1.20
2018-02-09T17:24:34.993Z,1.30
2018-02-09T17:27:02.595Z,1.30
2018-02-09T17:29:30.166Z,1.30
2018-02-09T17:31:58.489Z,1.10
2018-02-09T17:34:25.992Z,1.20
2018-02-09T17:36:53.564Z,1.20
2018-02-09T17:39:21.884Z,1.20
2018-02-09T17:41:49.354Z,1.10
2018-02-09T17:47:10.888Z,1.20
2018-02-09T17:49:38.384Z,1.20
2018-02-09T17:52:06.313Z,1.30
2018-02-09T17:54:33.822Z,1.30
2018-02-09T17:57:02.461Z,1.30
2018-02-09T17:59:30.207Z,1.30
2018-02-09T18:01:57.823Z,1.30
2018-02-09T18:04:25.389Z,1.30
2018-02-09T18:06:52.918Z,1.30
2018-02-09T18:09:20.576Z,1.30
2018-02-09T18:11:48.062Z,1.30
2018-02-09T18:14:15.571Z,1.30
2018-02-09T18:16:43.030Z,1.30
2018-02-09T18:19:10.589Z,1.30
2018-02-09T18:21:38.202Z,1.30
2018-02-09T18:24:05.682Z,1.20
2018-02-09T18:26:34.127Z,1.30
2018-02-09T18:29:02.267Z,1.20
2018-02-09T18:31:29.730Z,1.20
2018-02-09T18:33:57.465Z,1.30
2018-02-09T18:36:25.720Z,1.30
2018-02-09T18:38:53.995Z,1.40
2018-02-09T18:41:21.555Z,1.40
2018-02-09T18:43:49.827Z,1.40
2018-02-09T18:46:17.639Z,1.40
2018-02-09T18:48:45.255Z,1.50
2018-02-09T18:51:12.851Z,1.60
2018-02-09T18:53:41.150Z,1.70
2018-02-09T18:56:08.673Z,1.70
2018-02-09T18:58:37.142Z,1.70
2018-02-09T19:01:04.592Z,1.70
2018-02-09T19:03:32.335Z,1.80
2018-02-09T19:06:00.049Z,1.80
2018-02-09T19:08:28.331Z,1.90
2018-02-09T19:10:55.907Z,1.90
2018-02-09T19:13:23.375Z,1.90
2018-02-09T19:15:50.980Z,1.90
2018-02-09T19:18:18.487Z,2.00
2018-02-09T19:20:46.010Z,2.00
2018-02-09T19:23:13.450Z,2.00
2018-02-09T19:25:41.169Z,2.00
2018-02-09T19:28:08.696Z,2.00
2018-02-09T19:30:36.207Z,2.10
2018-02-09T19:33:03.699Z,2.10
2018-02-09T19:35:31.208Z,2.10
2018-02-09T19:37:58.763Z,2.00
2018-02-09T19:40:26.243Z,2.10
2018-02-09T19:42:53.730Z,2.10
2018-02-09T19:45:21.210Z,2.10
2018-02-09T19:47:48.769Z,2.20
2018-02-09T19:50:16.365Z,2.10
2018-02-09T19:52:43.875Z,2.10
2018-02-09T20:01:57.885Z,2.20
2018-02-09T20:04:26.168Z,2.00
2018-02-09T20:06:54.438Z,2.00
2018-02-09T20:09:23.090Z,2.10
2018-02-09T20:11:50.558Z,2.00
2018-02-09T20:14:18.085Z,2.10
2018-02-09T20:16:45.554Z,2.20
2018-02-09T20:19:13.027Z,2.30
2018-02-09T20:21:40.587Z,2.40
2018-02-09T20:24:08.129Z,2.40
2018-02-09T20:26:35.825Z,2.40
2018-02-09T20:29:03.324Z,2.30
2018-02-09T20:31:31.138Z,2.40
2018-02-09T20:33:58.616Z,2.40
2018-02-09T20:36:26.897Z,2.40
2018-02-09T20:38:55.126Z,2.40
2018-02-09T20:41:22.706Z,2.40
2018-02-09T20:43:50.335Z,2.40
2018-02-09T20:46:17.811Z,2.40
2018-02-09T20:48:45.281Z,2.30
2018-02-09T20:51:12.742Z,2.30
2018-02-09T20:53:40.313Z,2.20
2018-02-09T20:56:07.775Z,2.30
2018-02-09T20:58:35.237Z,2.40
2018-02-09T21:01:02.679Z,2.40
2018-02-09T21:03:30.156Z,2.40
2018-02-09T21:05:58.428Z,2.40
2018-02-09T21:08:25.960Z,2.40
2018-02-09T21:10:53.443Z,2.40
2018-02-09T21:13:20.991Z,2.50
2018-02-09T21:15:48.471Z,2.50
2018-02-09T21:18:16.803Z,2.40
2018-02-09T21:20:44.558Z,2.40
2018-02-09T21:23:12.022Z,2.40
2018-02-09T21:25:39.704Z,2.40
2018-02-09T21:28:07.274Z,2.50
2018-02-09T21:30:34.731Z,2.50
2018-02-09T21:33:02.418Z,2.40
2018-02-09T21:35:29.902Z,2.50
2018-02-09T21:37:58.171Z,2.50
2018-02-09T21:40:26.402Z,2.50
2018-02-09T21:42:53.895Z,2.50
2018-02-09T21:45:21.516Z,2.50
2018-02-09T21:47:49.255Z,2.50
2018-02-09T21:50:16.783Z,2.60
2018-02-09T21:52:44.383Z,2.60
2018-02-09T21:55:11.833Z,2.60
2018-02-09T21:57:39.337Z,2.60
2018-02-09T22:00:06.809Z,2.60
2018-02-09T22:02:34.258Z,2.60
2018-02-09T22:05:01.748Z,2.60
2018-02-09T22:07:30.002Z,2.70
2018-02-09T22:09:57.459Z,2.60
2018-02-09T22:12:24.899Z,2.70
2018-02-09T22:14:52.393Z,2.70
2018-02-09T22:17:20.656Z,2.70
2018-02-09T22:19:48.926Z,2.60
2018-02-09T22:22:16.393Z,2.60
2018-02-09T22:24:44.615Z,2.60
2018-02-09T22:27:12.123Z,2.50
2018-02-09T22:29:39.584Z,2.60
2018-02-09T22:32:07.037Z,2.50
2018-02-09T22:34:34.877Z,2.50
2018-02-09T22:37:02.359Z,2.60
2018-02-09T22:39:29.841Z,2.50
2018-02-09T22:41:58.104Z,2.50
2018-02-09T22:44:25.639Z,2.50
2018-02-09T22:46:53.119Z,2.60
2018-02-09T22:49:20.579Z,2.50
2018-02-09T22:51:48.133Z,2.60
2018-02-09T22:54:15.787Z,2.60
2018-02-09T22:56:43.376Z,2.60
2018-02-09T22:59:11.612Z,2.60
2018-02-09T23:01:39.081Z,2.60
2018-02-09T23:04:06.563Z,2.60
2018-02-09T23:06:34.828Z,2.40
2018-02-09T23:09:02.344Z,2.40
2018-02-09T23:11:29.879Z,2.40
2018-02-09T23:13:57.382Z,2.50
2018-02-09T23:16:24.885Z,2.50
2018-02-09T23:18:53.163Z,2.40
2018-02-09T23:21:21.631Z,2.40
2018-02-09T23:23:49.152Z,2.30
2018-02-09T23:26:16.620Z,2.30
2018-02-09T23:28:44.117Z,2.30
2018-02-09T23:31:12.352Z,2.50
2018-02-09T23:33:39.867Z,2.40
2018-02-09T23:36:07.319Z,2.50
2018-02-09T23:38:36.818Z,2.50
2018-02-09T23:41:05.044Z,2.40
2018-02-09T23:43:32.539Z,2.40
2018-02-09T23:46:00.029Z,2.40
2018-02-09T23:48:27.525Z,2.40
2018-02-09T23:50:54.968Z,2.50
2018-02-09T23:53:22.491Z,2.50
2018-02-09T23:55:50.713Z,2.40
2018-02-09T23:58:18.182Z,2.40
